createdAt,value
2022-08-05T00:02:23.074Z,22.70
2022-08-05T00:07:59.663Z,22.60
2022-08-05T00:12:55.738Z,22.60
2022-08-05T00:17:59.772Z,22.60
2022-08-05T00:23:12.717Z,22.50
2022-08-05T00:28:16.217Z,22.40
2022-08-05T00:34:55.424Z,22.40
2022-08-05T00:38:57.202Z,22.30
2022-08-05T00:44:03.067Z,22.20
2022-08-05T00:49:06.075Z,22.20
2022-08-05T00:54:13.187Z,22.10
2022-08-05T00:59:15.973Z,22.10
2022-08-05T01:04:20.293Z,22.10
2022-08-05T01:09:30.454Z,22.00
2022-08-05T01:14:40.714Z,21.90
2022-08-05T01:20:03.419Z,21.80
2022-08-05T01:25:20.908Z,21.70
2022-08-05T01:30:34.130Z,21.60
2022-08-05T01:35:51.540Z,21.40
2022-08-05T01:40:59.563Z,21.40
2022-08-05T01:46:07.350Z,21.40
2022-08-05T01:51:21.977Z,21.30
2022-08-05T01:58:09.566Z,21.30
2022-08-05T02:02:00.764Z,21.20
2022-08-05T02:07:04.245Z,21.10
2022-08-05T02:12:25.349Z,21.10
2022-08-05T02:18:30.687Z,21.10
2022-08-05T02:23:12.000Z,21.00
2022-08-05T02:28:29.258Z,21.00
2022-08-05T02:33:48.455Z,21.00
2022-08-05T02:38:55.110Z,20.90
2022-08-05T02:44:06.185Z,20.90
2022-08-05T02:49:17.091Z,20.90
2022-08-05T02:54:35.755Z,20.90
2022-08-05T02:59:48.101Z,20.90
2022-08-05T03:04:56.597Z,20.80
2022-08-05T03:09:59.659Z,20.80
2022-08-05T03:15:04.429Z,20.80
2022-08-05T03:20:10.602Z,20.80
2022-08-05T03:26:03.718Z,20.70
2022-08-05T03:30:43.357Z,20.70
2022-08-05T03:35:48.000Z,20.70
2022-08-05T03:40:52.783Z,20.60
2022-08-05T03:45:58.678Z,20.60
2022-08-05T03:52:38.612Z,20.60
2022-08-05T03:56:46.691Z,20.60
2022-08-05T04:01:52.355Z,20.60
2022-08-05T04:06:56.059Z,20.60
2022-08-05T04:11:59.930Z,20.70
2022-08-05T04:17:03.919Z,20.70
2022-08-05T04:22:12.082Z,20.70
2022-08-05T04:27:15.457Z,20.80
2022-08-05T04:32:30.561Z,20.90
2022-08-05T04:38:01.191Z,21.10
2022-08-05T04:42:59.888Z,21.20
2022-08-05T04:48:16.317Z,21.40
2022-08-05T04:53:21.479Z,21.50
2022-08-05T04:58:24.463Z,21.70
2022-08-05T05:03:29.190Z,21.90
2022-08-05T05:08:44.814Z,22.00
2022-08-05T05:13:52.860Z,22.20
2022-08-05T05:19:19.023Z,22.50
2022-08-05T05:24:21.852Z,22.60
2022-08-05T05:29:24.589Z,22.80
2022-08-05T05:34:47.373Z,23.00
2022-08-05T05:39:50.325Z,23.20
2022-08-05T05:44:53.076Z,23.40
2022-08-05T05:50:04.233Z,23.70
2022-08-05T05:55:13.364Z,23.90
2022-08-05T06:00:21.896Z,24.20
2022-08-05T06:05:34.483Z,24.30
2022-08-05T06:10:44.249Z,24.50
2022-08-05T06:16:29.446Z,24.70
2022-08-05T06:21:19.044Z,24.80
2022-08-05T06:26:24.909Z,25.10
2022-08-05T06:31:32.236Z,25.30
2022-08-05T06:36:53.459Z,25.50
2022-08-05T06:42:04.126Z,25.70
2022-08-05T06:47:10.317Z,25.90
2022-08-05T06:52:37.067Z,26.20
2022-08-05T06:58:02.630Z,26.50
2022-08-05T07:03:04.936Z,26.70
2022-08-05T07:08:12.497Z,27.00
2022-08-05T07:13:59.871Z,27.30
2022-08-05T07:19:03.029Z,27.50
2022-08-05T07:24:11.226Z,27.70
2022-08-05T07:29:16.003Z,28.00
2022-08-05T07:34:25.195Z,28.20
2022-08-05T07:40:26.887Z,28.40
2022-08-05T07:44:54.289Z,28.60
2022-08-05T07:49:58.323Z,28.80
2022-08-05T07:55:02.492Z,29.00
2022-08-05T08:00:11.400Z,29.20
2022-08-05T08:05:15.627Z,29.40
2022-08-05T08:10:20.974Z,29.50
2022-08-05T08:15:37.311Z,29.80
2022-08-05T08:21:02.713Z,30.00
2022-08-05T08:26:07.609Z,30.30
2022-08-05T08:31:15.101Z,30.60
2022-08-05T08:36:29.648Z,30.70
2022-08-05T08:41:51.180Z,30.90
2022-08-05T08:46:56.479Z,31.10
2022-08-05T08:52:19.841Z,31.40
2022-08-05T08:57:23.950Z,31.60
2022-08-05T09:02:46.514Z,31.80
2022-08-05T09:07:57.348Z,32.00
2022-08-05T09:13:05.300Z,32.20
2022-08-05T09:18:10.050Z,32.30
2022-08-05T09:23:21.790Z,32.40
2022-08-05T09:28:31.857Z,32.60
2022-08-05T09:33:51.857Z,32.80
2022-08-05T09:39:03.190Z,33.10
2022-08-05T09:44:06.115Z,33.30
2022-08-05T09:49:40.462Z,33.60
2022-08-05T09:55:56.197Z,33.70
2022-08-05T10:00:35.171Z,34.00
2022-08-05T10:05:38.866Z,34.20
2022-08-05T10:10:44.709Z,34.40
2022-08-05T10:15:47.678Z,34.40
2022-08-05T10:20:57.039Z,34.50
2022-08-05T10:26:07.020Z,34.70
2022-08-05T10:33:01.071Z,34.80
2022-08-05T10:36:40.532Z,35.00
2022-08-05T10:42:08.139Z,35.30
2022-08-05T10:47:26.055Z,35.20
2022-08-05T10:52:54.036Z,35.30
2022-08-05T10:58:14.915Z,35.50
2022-08-05T11:03:24.699Z,35.60
2022-08-05T11:08:37.196Z,35.70
2022-08-05T11:13:55.127Z,35.60
2022-08-05T11:20:10.501Z,35.60
2022-08-05T11:26:04.993Z,35.60
2022-08-05T11:30:58.439Z,35.60
2022-08-05T11:36:08.962Z,35.90
2022-08-05T11:41:54.366Z,36.10
2022-08-05T11:46:58.464Z,36.10
2022-08-05T11:52:15.066Z,36.10
2022-08-05T11:57:25.659Z,36.40
2022-08-05T12:02:36.126Z,36.70
2022-08-05T12:08:09.255Z,36.90
2022-08-05T12:13:15.953Z,37.30
2022-08-05T12:18:33.262Z,37.40
2022-08-05T12:23:36.369Z,37.50
2022-08-05T12:28:46.455Z,37.60
2022-08-05T12:33:50.743Z,37.70
2022-08-05T12:38:58.236Z,38.00
2022-08-05T12:44:14.549Z,38.30
2022-08-05T12:50:03.253Z,38.50
2022-08-05T12:55:26.261Z,39.10
2022-08-05T13:02:02.844Z,39.50
2022-08-05T13:05:56.614Z,39.80
2022-08-05T13:11:04.381Z,40.00
2022-08-05T13:16:15.366Z,39.90
2022-08-05T13:21:20.460Z,39.90
2022-08-05T13:26:29.825Z,39.80
2022-08-05T13:31:34.103Z,39.60
2022-08-05T13:36:55.958Z,39.20
2022-08-05T13:41:58.791Z,39.10
2022-08-05T13:47:08.587Z,39.10
2022-08-05T13:52:29.085Z,39.10
2022-08-05T13:57:48.960Z,39.00
2022-08-05T14:02:57.332Z,39.10
2022-08-05T14:08:05.762Z,39.10
2022-08-05T14:13:15.418Z,39.10
2022-08-05T14:18:23.418Z,39.10
2022-08-05T14:23:29.668Z,39.10
2022-08-05T14:28:52.183Z,39.20
2022-08-05T14:34:00.480Z,39.30
2022-08-05T14:39:05.796Z,39.30
2022-08-05T14:44:20.687Z,39.30
2022-08-05T14:49:24.668Z,39.30
2022-08-05T14:54:52.806Z,39.10
2022-08-05T14:59:56.240Z,38.80
2022-08-05T15:04:59.345Z,38.60
2022-08-05T15:10:03.803Z,38.60
2022-08-05T15:15:13.669Z,38.60
2022-08-05T15:20:24.716Z,38.60
2022-08-05T15:25:51.424Z,38.50
2022-08-05T15:30:52.969Z,38.50
2022-08-05T15:35:56.359Z,38.60
2022-08-05T15:41:22.191Z,38.60
2022-08-05T15:46:24.925Z,38.60
2022-08-05T15:52:09.738Z,38.60
2022-08-05T15:56:52.572Z,38.60
2022-08-05T16:01:55.425Z,38.70
2022-08-05T16:07:02.589Z,38.70
2022-08-05T16:12:06.246Z,38.80
2022-08-05T16:17:09.666Z,38.70
2022-08-05T16:22:15.578Z,38.70
2022-08-05T16:27:18.823Z,38.50
2022-08-05T16:32:28.748Z,38.40
2022-08-05T16:38:02.845Z,38.30
2022-08-05T16:42:57.644Z,38.20
2022-08-05T16:48:02.912Z,38.20
2022-08-05T16:53:12.264Z,38.10
2022-08-05T16:58:25.750Z,37.90
2022-08-05T17:03:29.241Z,37.60
2022-08-05T17:08:52.461Z,37.30
2022-08-05T17:14:05.199Z,36.80
2022-08-05T17:19:09.548Z,36.40
2022-08-05T17:24:31.263Z,36.00
2022-08-05T17:29:40.965Z,35.60
2022-08-05T17:34:47.647Z,35.20
2022-08-05T17:39:51.214Z,34.70
2022-08-05T17:44:58.931Z,34.20
2022-08-05T17:50:10.189Z,33.70
2022-08-05T17:55:13.974Z,33.30
2022-08-05T18:00:18.723Z,32.90
2022-08-05T18:05:21.968Z,32.50
2022-08-05T18:10:24.803Z,32.20
2022-08-05T18:15:34.155Z,31.80
2022-08-05T18:20:38.012Z,31.50
2022-08-05T18:25:45.193Z,31.20
2022-08-05T18:30:51.137Z,31.00
2022-08-05T18:36:04.894Z,30.70
2022-08-05T18:41:57.940Z,30.40
2022-08-05T18:46:31.601Z,30.20
2022-08-05T18:52:06.401Z,30.00
2022-08-05T18:57:15.183Z,29.80
2022-08-05T19:02:28.671Z,29.70
2022-08-05T19:07:45.394Z,29.50
2022-08-05T19:12:50.244Z,29.30
2022-08-05T19:18:08.875Z,29.20
2022-08-05T19:24:04.520Z,29.00
2022-08-05T19:28:37.528Z,28.80
2022-08-05T19:33:48.323Z,28.60
2022-08-05T19:39:00.841Z,28.50
2022-08-05T19:44:13.833Z,28.40
2022-08-05T19:49:17.885Z,28.20
2022-08-05T19:54:25.606Z,28.10
2022-08-05T19:59:56.487Z,28.00
2022-08-05T20:04:58.754Z,27.90
2022-08-05T20:10:11.711Z,27.80
2022-08-05T20:15:23.330Z,27.70
2022-08-05T20:20:46.628Z,27.50
2022-08-05T20:25:52.201Z,27.40
2022-08-05T20:30:55.360Z,27.30
2022-08-05T20:35:58.362Z,27.30
2022-08-05T20:41:01.287Z,27.20
2022-08-05T20:46:24.859Z,27.20
2022-08-05T20:51:28.181Z,27.10
2022-08-05T20:56:34.243Z,27.00
2022-08-05T21:01:45.255Z,26.80
2022-08-05T21:06:48.248Z,26.70
2022-08-05T21:12:09.427Z,26.60
2022-08-05T21:17:14.145Z,26.50
2022-08-05T21:22:21.893Z,26.40
2022-08-05T21:27:27.452Z,26.30
2022-08-05T21:32:30.587Z,26.10
2022-08-05T21:37:35.053Z,26.00
2022-08-05T21:42:45.275Z,25.90
2022-08-05T21:47:56.272Z,25.80
2022-08-05T21:53:08.334Z,25.70
2022-08-05T21:58:20.594Z,25.60
2022-08-05T22:03:49.118Z,25.60
2022-08-05T22:08:55.706Z,25.60
2022-08-05T22:14:05.862Z,25.60
2022-08-05T22:19:57.176Z,25.50
2022-08-05T22:25:03.978Z,25.50
2022-08-05T22:30:14.217Z,25.40
2022-08-05T22:35:17.140Z,25.40
2022-08-05T22:40:20.525Z,25.30
2022-08-05T22:45:26.345Z,25.30
2022-08-05T22:50:29.677Z,25.30
2022-08-05T22:55:37.137Z,25.30
2022-08-05T23:00:57.082Z,25.20
2022-08-05T23:06:00.220Z,25.10
2022-08-05T23:11:04.210Z,25.00
2022-08-05T23:16:07.140Z,24.80
2022-08-05T23:21:11.320Z,24.70
2022-08-05T23:26:20.009Z,24.60
2022-08-05T23:31:24.581Z,24.60
2022-08-05T23:36:28.471Z,24.50
2022-08-05T23:41:48.368Z,24.40
2022-08-05T23:46:51.618Z,24.30
2022-08-05T23:52:13.334Z,24.10
2022-08-05T23:57:19.868Z,24.00
